Time;durP1;ratioP1;P1;durP2;ratioP2;P2;SDS_P1;SDS_P2;PMS_P1;PMS_P2;Temp;Humidity;BMP_temperature;BMP_pressure;BME280_temperature;BME280_humidity;BME280_pressure;Samples;Min_cycle;Max_cycle;Signal;HPM_P1;HPM_P2
2021/08/06 00:02:04;;;;;;;1.67;1.07;;;17.70;98.50;;;;;;5040137;28;20446;-83
2021/08/06 00:04:31;;;;;;;2.57;1.30;;;17.70;98.20;;;;;;5039161;28;20489;-83
2021/08/06 00:06:56;;;;;;;3.25;1.50;;;17.60;98.70;;;;;;5039782;28;20411;-83
2021/08/06 00:09:22;;;;;;;1.97;1.37;;;17.60;98.00;;;;;;5039791;28;20574;-83
2021/08/06 00:11:48;;;;;;;1.57;1.03;;;17.70;98.80;;;;;;5039643;28;20590;-83
2021/08/06 00:14:14;;;;;;;2.30;1.13;;;17.70;98.40;;;;;;5039730;28;20469;-83
2021/08/06 00:16:40;;;;;;;1.90;1.23;;;17.70;98.20;;;;;;5039707;28;20453;-83
2021/08/06 00:19:05;;;;;;;1.65;1.10;;;17.60;98.50;;;;;;5040211;28;20224;-82
2021/08/06 00:21:31;;;;;;;2.13;1.30;;;17.60;98.50;;;;;;5040943;28;20209;-82
2021/08/06 00:23:58;;;;;;;2.27;1.40;;;17.70;98.20;;;;;;5040545;28;20195;-82
2021/08/06 00:26:23;;;;;;;3.35;1.17;;;17.60;98.00;;;;;;5040986;28;20970;-82
2021/08/06 00:28:49;;;;;;;8.03;1.37;;;17.60;98.10;;;;;;5040679;28;20193;-82
2021/08/06 00:31:15;;;;;;;1.83;1.20;;;17.60;98.20;;;;;;5041069;28;20411;-82
2021/08/06 00:33:41;;;;;;;1.77;1.23;;;17.60;98.20;;;;;;5040781;28;20193;-83
2021/08/06 00:36:07;;;;;;;1.50;1.00;;;17.60;97.70;;;;;;5040514;28;20461;-82
2021/08/06 00:38:32;;;;;;;4.65;1.30;;;17.60;97.90;;;;;;5039233;28;20169;-83
2021/08/06 00:40:58;;;;;;;1.90;1.13;;;17.60;97.50;;;;;;5038750;28;20707;-83
2021/08/06 00:43:24;;;;;;;2.13;1.30;;;17.50;97.20;;;;;;5039677;28;20292;-83
2021/08/06 00:45:50;;;;;;;4.50;1.40;;;17.50;96.70;;;;;;5039188;28;20180;-83
2021/08/06 00:48:16;;;;;;;6.70;1.70;;;17.50;96.70;;;;;;5038801;28;20205;-83
2021/08/06 00:50:42;;;;;;;2.40;1.30;;;17.40;96.90;;;;;;5039731;28;20415;-83
2021/08/06 00:53:08;;;;;;;1.20;1.00;;;17.40;97.50;;;;;;5039986;28;20197;-83
2021/08/06 00:55:34;;;;;;;3.90;1.30;;;17.40;97.60;;;;;;5038802;28;20419;-82
2021/08/06 00:57:59;;;;;;;2.55;1.00;;;17.40;97.80;;;;;;5039652;28;20419;-83
2021/08/06 01:00:25;;;;;;;3.17;1.30;;;17.40;97.20;;;;;;5039305;28;20260;-83
2021/08/06 01:03:02;;;;;;;2.03;1.20;;;17.30;97.40;;;;;;5039172;28;20697;-82
2021/08/06 01:05:34;;;;;;;1.85;1.23;;;17.30;97.40;;;;;;5038838;28;20418;-83
2021/08/06 01:08:04;;;;;;;3.55;1.45;;;17.30;97.00;;;;;;5039002;28;20201;-83
2021/08/06 01:10:49;;;;;;;3.00;1.25;;;17.30;97.30;;;;;;5039626;28;20165;-83
2021/08/06 01:13:20;;;;;;;5.63;1.23;;;17.20;97.80;;;;;;5039751;28;20681;-83
2021/08/06 01:15:53;;;;;;;2.20;1.48;;;17.10;98.20;;;;;;5040272;28;20531;-83
2021/08/06 01:18:20;;;;;;;4.57;1.35;;;17.10;98.40;;;;;;5039454;28;20596;-83
2021/08/06 01:20:51;;;;;;;2.35;1.30;;;17.10;97.90;;;;;;5040045;28;20169;-83
2021/08/06 01:23:29;;;;;;;2.00;1.45;;;17.10;97.90;;;;;;5039911;28;20204;-83
2021/08/06 01:26:06;;;;;;;2.95;1.40;;;17.10;98.30;;;;;;5040318;28;20173;-82
2021/08/06 01:28:35;;;;;;;4.60;1.35;;;17.10;97.80;;;;;;5039638;28;20254;-83
2021/08/06 01:31:02;;;;;;;1.50;1.38;;;17.10;97.60;;;;;;5039647;28;20690;-82
2021/08/06 01:33:28;;;;;;;2.10;1.20;;;17.10;97.60;;;;;;5039699;28;20275;-83
2021/08/06 01:35:53;;;;;;;1.90;1.30;;;17.10;97.70;;;;;;5039935;28;20196;-82
2021/08/06 01:38:19;;;;;;;1.70;1.43;;;17.10;98.10;;;;;;5039828;28;20822;-83
2021/08/06 01:41:23;;;;;;;4.85;1.20;;;17.10;97.60;;;;;;5039306;28;20566;-83
2021/08/06 01:44:00;;;;;;;4.50;1.63;;;17.10;97.50;;;;;;5055906;28;20235;-83
2021/08/06 01:46:39;;;;;;;5.20;1.65;;;17.10;97.40;;;;;;5038561;28;20731;-83
2021/08/06 01:49:16;;;;;;;5.80;1.50;;;17.10;98.10;;;;;;5038517;28;20211;-83
2021/08/06 01:51:46;;;;;;;2.35;1.52;;;17.20;97.10;;;;;;5038831;28;20161;-82
2021/08/06 01:54:13;;;;;;;1.85;1.20;;;17.20;97.00;;;;;;5038094;28;20250;-83
2021/08/06 01:56:41;;;;;;;2.35;1.52;;;17.20;97.10;;;;;;5037472;28;20173;-83
2021/08/06 01:59:07;;;;;;;3.83;1.60;;;17.20;96.90;;;;;;5038325;28;20184;-83
2021/08/06 02:01:33;;;;;;;1.90;1.40;;;17.30;96.30;;;;;;5037927;28;20200;-83
2021/08/06 02:04:00;;;;;;;2.65;1.52;;;17.30;96.90;;;;;;5037182;28;20540;-83
2021/08/06 02:06:26;;;;;;;3.53;1.95;;;17.30;96.20;;;;;;5037112;28;20177;-82
2021/08/06 02:08:52;;;;;;;3.15;1.33;;;17.30;96.30;;;;;;5037880;28;20216;-83
2021/08/06 02:11:21;;;;;;;3.08;1.67;;;17.40;96.00;;;;;;5037194;28;20666;-83
2021/08/06 02:13:51;;;;;;;6.05;1.48;;;17.40;96.10;;;;;;5037395;28;20189;-83
2021/08/06 02:16:18;;;;;;;1.65;1.33;;;17.40;95.80;;;;;;5037122;28;20168;-83
2021/08/06 02:18:51;;;;;;;1.35;1.20;;;17.40;95.90;;;;;;5036839;28;20181;-83
2021/08/06 02:21:24;;;;;;;3.67;1.55;;;17.50;96.00;;;;;;5036917;28;20165;-83
2021/08/06 02:23:53;;;;;;;1.40;1.35;;;17.50;95.10;;;;;;5036809;28;20246;-83
2021/08/06 02:26:20;;;;;;;2.17;1.65;;;17.50;95.60;;;;;;5036864;28;20649;-83
2021/08/06 02:28:49;;;;;;;6.88;2.00;;;17.60;95.20;;;;;;5036857;28;20201;-83
2021/08/06 02:31:16;;;;;;;2.78;1.83;;;17.50;94.20;;;;;;5037438;28;20664;-83
2021/08/06 02:33:42;;;;;;;2.00;1.50;;;17.60;94.80;;;;;;5037133;28;20220;-83
2021/08/06 02:36:08;;;;;;;5.30;1.70;;;17.60;95.30;;;;;;5037942;28;20644;-83
2021/08/06 02:38:34;;;;;;;1.90;1.50;;;17.60;93.90;;;;;;5037924;28;20241;-82
2021/08/06 02:41:01;;;;;;;2.22;1.50;;;17.60;94.50;;;;;;5037307;28;20173;-83
2021/08/06 02:43:26;;;;;;;5.30;2.00;;;17.70;93.90;;;;;;5037513;28;20193;-83
2021/08/06 02:45:52;;;;;;;1.83;1.33;;;17.60;93.80;;;;;;5037343;28;20174;-83
2021/08/06 02:48:18;;;;;;;2.17;1.70;;;17.70;94.00;;;;;;5037537;28;20469;-82
2021/08/06 02:50:44;;;;;;;3.25;1.60;;;17.80;93.80;;;;;;5037620;28;20399;-83
2021/08/06 02:53:10;;;;;;;2.80;1.50;;;17.80;94.20;;;;;;5038120;28;20189;-83
2021/08/06 02:55:36;;;;;;;4.97;1.80;;;17.80;94.20;;;;;;5037890;28;20408;-83
2021/08/06 02:58:03;;;;;;;1.80;1.37;;;17.80;93.70;;;;;;5038362;28;20261;-83
2021/08/06 03:00:29;;;;;;;2.70;1.63;;;17.80;94.00;;;;;;5037565;28;20423;-83
2021/08/06 03:02:55;;;;;;;1.80;1.67;;;17.80;94.20;;;;;;5037899;28;20707;-83
2021/08/06 03:05:21;;;;;;;4.20;2.57;;;17.80;94.70;;;;;;5040057;28;20173;-83
2021/08/06 03:07:51;;;;;;;5.90;2.20;;;17.80;95.50;;;;;;5041535;28;20193;-83
2021/08/06 03:10:20;;;;;;;3.83;2.25;;;17.70;95.90;;;;;;5041466;28;20417;-83
2021/08/06 03:12:47;;;;;;;3.17;1.90;;;17.80;95.70;;;;;;5042236;28;20565;-83
2021/08/06 03:15:14;;;;;;;6.70;2.20;;;17.70;95.80;;;;;;5041433;28;20165;-83
2021/08/06 03:17:41;;;;;;;3.53;1.92;;;17.70;95.90;;;;;;5042346;28;20174;-83
2021/08/06 03:20:13;;;;;;;3.63;2.00;;;17.70;96.20;;;;;;5041571;28;20200;-83
2021/08/06 03:22:40;;;;;;;10.45;2.90;;;17.70;96.40;;;;;;5041702;28;20176;-83
2021/08/06 03:25:07;;;;;;;3.50;2.15;;;17.70;96.20;;;;;;5042240;28;20170;-83
2021/08/06 03:27:33;;;;;;;3.85;2.45;;;17.70;96.20;;;;;;5041410;28;20713;-83
2021/08/06 03:29:59;;;;;;;4.07;2.45;;;17.70;96.20;;;;;;5041529;28;20178;-83
2021/08/06 03:32:25;;;;;;;7.30;1.90;;;17.70;96.00;;;;;;5041849;28;20822;-83
2021/08/06 03:34:51;;;;;;;7.82;2.33;;;17.70;96.60;;;;;;5041187;28;20450;-83
2021/08/06 03:37:17;;;;;;;3.13;1.80;;;17.70;96.60;;;;;;5040777;28;20169;-83
2021/08/06 03:39:43;;;;;;;6.13;1.90;;;17.70;96.50;;;;;;5041494;28;20857;-83
2021/08/06 03:42:09;;;;;;;4.10;2.30;;;17.60;96.80;;;;;;5040687;28;20204;-83
2021/08/06 03:44:35;;;;;;;3.60;2.40;;;17.60;96.70;;;;;;5039712;28;20230;-83
2021/08/06 03:47:00;;;;;;;3.38;1.55;;;17.60;97.00;;;;;;5039957;28;20418;-83
2021/08/06 03:49:26;;;;;;;4.07;2.47;;;17.60;96.90;;;;;;5039945;28;20583;-83
2021/08/06 03:51:52;;;;;;;4.73;2.50;;;17.60;97.10;;;;;;5040662;28;20634;-82
2021/08/06 03:54:18;;;;;;;4.80;2.30;;;17.60;96.80;;;;;;5040862;28;20185;-83
2021/08/06 03:56:44;;;;;;;3.53;2.20;;;17.60;97.10;;;;;;5041073;28;20439;-82
2021/08/06 03:59:09;;;;;;;4.10;2.20;;;17.60;97.00;;;;;;5041309;28;20260;-84
2021/08/06 04:01:35;;;;;;;4.27;1.73;;;17.60;96.80;;;;;;5040662;28;20294;-83
2021/08/06 04:04:01;;;;;;;5.27;2.30;;;17.60;97.00;;;;;;5041186;28;20200;-83
2021/08/06 04:06:27;;;;;;;2.33;2.07;;;17.60;96.90;;;;;;5039981;28;20797;-83
2021/08/06 04:08:53;;;;;;;3.53;1.80;;;17.60;97.00;;;;;;5040394;28;20457;-83
2021/08/06 04:11:20;;;;;;;4.70;2.37;;;17.60;97.00;;;;;;5040920;28;20919;-82
2021/08/06 04:13:46;;;;;;;3.85;2.17;;;17.60;97.30;;;;;;5041134;28;20189;-83
2021/08/06 04:16:13;;;;;;;3.00;1.80;;;17.60;97.20;;;;;;5039875;28;20181;-82
2021/08/06 04:18:39;;;;;;;3.38;2.00;;;17.50;97.20;;;;;;5041111;28;20183;-83
2021/08/06 04:21:04;;;;;;;4.50;2.37;;;17.50;97.40;;;;;;5041418;28;20173;-82
2021/08/06 04:23:30;;;;;;;3.43;2.20;;;17.50;97.40;;;;;;5041465;28;20963;-82
2021/08/06 04:25:56;;;;;;;2.30;1.80;;;17.50;96.70;;;;;;5041397;28;20170;-82
2021/08/06 04:28:22;;;;;;;2.87;1.90;;;17.50;96.90;;;;;;5040796;28;20203;-82
2021/08/06 04:30:48;;;;;;;3.93;1.87;;;17.50;96.80;;;;;;5041646;28;20438;-82
2021/08/06 04:33:14;;;;;;;5.50;1.90;;;17.50;97.00;;;;;;5041527;28;20971;-82
2021/08/06 04:35:39;;;;;;;3.40;2.10;;;17.60;96.40;;;;;;5040866;28;20498;-82
2021/08/06 04:38:05;;;;;;;9.10;1.80;;;17.60;96.80;;;;;;5041538;28;20416;-82
2021/08/06 04:40:31;;;;;;;2.33;1.87;;;17.60;96.90;;;;;;5041454;28;20177;-82
2021/08/06 04:42:57;;;;;;;2.37;1.80;;;17.60;96.00;;;;;;5040999;28;20951;-80
2021/08/06 04:45:23;;;;;;;2.20;1.70;;;17.60;96.20;;;;;;5041285;28;20415;-82
2021/08/06 04:47:51;;;;;;;3.33;1.73;;;17.70;96.60;;;;;;5040845;28;20208;-83
2021/08/06 04:50:20;;;;;;;4.13;2.40;;;17.70;97.10;;;;;;5041421;28;20479;-82
2021/08/06 04:52:46;;;;;;;2.58;1.90;;;17.70;97.60;;;;;;5040703;28;20185;-82
2021/08/06 04:55:12;;;;;;;3.50;2.35;;;17.70;97.40;;;;;;5040815;28;20183;-82
2021/08/06 04:57:39;;;;;;;3.05;1.80;;;17.70;97.80;;;;;;5041169;28;20770;-83
2021/08/06 05:00:07;;;;;;;4.05;2.53;;;17.80;97.20;;;;;;5040965;28;20201;-83
2021/08/06 05:02:32;;;;;;;3.53;2.50;;;17.70;97.60;;;;;;5040372;28;20653;-83
2021/08/06 05:04:58;;;;;;;3.77;2.30;;;17.70;97.90;;;;;;5039251;28;20201;-83
2021/08/06 05:07:24;;;;;;;4.23;2.30;;;17.70;97.80;;;;;;5039108;28;20169;-83
2021/08/06 05:09:50;;;;;;;5.67;2.53;;;17.70;97.60;;;;;;5039459;28;20262;-83
2021/08/06 05:12:15;;;;;;;5.10;2.50;;;17.70;97.90;;;;;;5039262;28;20515;-83
2021/08/06 05:14:41;;;;;;;4.00;2.43;;;17.70;98.30;;;;;;5038699;28;20283;-83
2021/08/06 05:17:10;;;;;;;4.47;2.85;;;17.60;98.60;;;;;;5039236;28;20173;-83
2021/08/06 05:19:36;;;;;;;3.03;2.70;;;17.60;99.00;;;;;;5038910;28;20173;-82
2021/08/06 05:22:03;;;;;;;6.25;2.60;;;17.50;99.10;;;;;;5040012;28;20219;-82
2021/08/06 05:24:28;;;;;;;3.85;2.50;;;17.50;99.10;;;;;;5040188;28;20216;-83
2021/08/06 05:26:54;;;;;;;2.80;1.97;;;17.40;99.10;;;;;;5039930;28;20169;-83
2021/08/06 05:29:20;;;;;;;4.50;2.17;;;17.40;99.10;;;;;;5040477;28;20204;-82
2021/08/06 05:31:46;;;;;;;8.70;2.73;;;17.30;99.10;;;;;;5041031;28;20180;-82
2021/08/06 05:34:11;;;;;;;3.10;2.33;;;17.30;99.10;;;;;;5040912;28;20197;-82
2021/08/06 05:36:37;;;;;;;11.77;2.70;;;17.20;99.10;;;;;;5039167;28;20165;-81
2021/08/06 05:39:03;;;;;;;8.10;3.70;;;17.20;99.10;;;;;;5039319;28;20184;-82
2021/08/06 05:41:29;;;;;;;6.40;2.73;;;17.00;99.10;;;;;;5040241;28;20264;-82
2021/08/06 05:43:55;;;;;;;5.63;3.33;;;17.10;99.10;;;;;;5038697;28;20423;-82
2021/08/06 05:46:20;;;;;;;4.53;2.70;;;17.10;99.10;;;;;;5040839;28;20173;-82
2021/08/06 05:48:46;;;;;;;6.07;3.00;;;17.10;99.10;;;;;;5040557;28;20463;-82
2021/08/06 05:51:12;;;;;;;4.17;3.20;;;17.00;99.10;;;;;;5039086;28;20169;-83
2021/08/06 05:53:38;;;;;;;7.73;3.63;;;17.00;99.10;;;;;;5040203;28;20192;-83
2021/08/06 05:56:04;;;;;;;6.40;3.50;;;17.10;99.10;;;;;;5040432;28;20400;-82
2021/08/06 05:58:29;;;;;;;7.20;3.27;;;17.10;99.10;;;;;;5041756;28;20423;-82
2021/08/06 06:00:55;;;;;;;17.93;3.70;;;17.10;99.10;;;;;;5040207;28;20499;-84
2021/08/06 06:03:21;;;;;;;6.20;3.20;;;17.20;99.10;;;;;;5039760;28;20208;-82
2021/08/06 06:05:47;;;;;;;9.50;3.53;;;17.20;99.10;;;;;;5040163;28;20481;-83
2021/08/06 06:08:12;;;;;;;4.97;3.63;;;17.20;99.10;;;;;;5040325;28;20447;-83
2021/08/06 06:10:38;;;;;;;6.40;2.90;;;17.30;99.10;;;;;;5040590;28;20169;-83
2021/08/06 06:13:04;;;;;;;6.40;3.03;;;17.40;99.10;;;;;;5040829;28;20653;-83
2021/08/06 06:15:31;;;;;;;3.72;2.50;;;17.40;99.10;;;;;;5038822;28;20479;-84
2021/08/06 06:17:56;;;;;;;9.85;2.90;;;17.50;99.10;;;;;;5040752;28;20173;-83
2021/08/06 06:20:23;;;;;;;6.50;4.07;;;17.50;99.10;;;;;;5040628;28;20656;-84
2021/08/06 06:22:49;;;;;;;5.32;2.97;;;17.50;99.10;;;;;;5039091;28;21172;-84
2021/08/06 06:25:15;;;;;;;4.18;2.70;;;17.50;99.10;;;;;;5039916;28;20173;-84
2021/08/06 06:27:59;;;;;;;6.88;2.67;;;17.50;99.10;;;;;;5039616;28;20239;-84
2021/08/06 06:30:27;;;;;;;4.18;2.50;;;17.60;99.10;;;;;;5039560;28;20166;-84
2021/08/06 06:32:54;;;;;;;6.53;2.83;;;17.70;99.10;;;;;;5040066;28;20272;-84
2021/08/06 06:35:21;;;;;;;4.60;2.33;;;17.70;99.10;;;;;;5040139;28;20169;-83
2021/08/06 06:37:47;;;;;;;4.07;2.75;;;17.80;99.10;;;;;;5039833;28;20173;-83
2021/08/06 06:40:14;;;;;;;5.90;2.60;;;18.00;99.10;;;;;;5041706;28;20173;-83
2021/08/06 06:42:40;;;;;;;5.53;2.53;;;18.10;99.10;;;;;;5043716;28;20435;-83
2021/08/06 06:45:07;;;;;;;11.27;3.28;;;18.20;99.10;;;;;;5043381;28;20173;-83
2021/08/06 06:47:40;;;;;;;3.55;2.30;;;18.30;99.10;;;;;;5041489;28;20610;-81
2021/08/06 06:50:09;;;;;;;3.70;2.45;;;18.40;99.10;;;;;;5041918;28;20169;-84
2021/08/06 06:52:39;;;;;;;5.07;2.85;;;18.50;99.10;;;;;;5041545;28;20181;-83
2021/08/06 06:55:07;;;;;;;5.82;2.78;;;18.50;99.10;;;;;;5040612;28;20169;-83
2021/08/06 06:57:44;;;;;;;9.85;2.78;;;18.60;99.10;;;;;;5039841;28;20256;-84
2021/08/06 07:00:12;;;;;;;5.22;2.30;;;18.60;99.10;;;;;;5041129;28;20165;-84
2021/08/06 07:02:38;;;;;;;5.75;2.38;;;18.70;99.10;;;;;;5040894;28;20219;-83
2021/08/06 07:05:05;;;;;;;4.78;2.03;;;18.80;99.10;;;;;;5040262;28;20180;-84
2021/08/06 07:07:30;;;;;;;5.60;2.30;;;18.90;99.10;;;;;;5040153;28;20177;-84
2021/08/06 07:09:57;;;;;;;4.63;2.83;;;19.00;98.90;;;;;;5039435;28;20196;-84
2021/08/06 07:12:22;;;;;;;4.97;2.80;;;19.30;98.50;;;;;;5039476;28;20908;-84
2021/08/06 07:14:48;;;;;;;4.50;2.57;;;19.50;99.10;;;;;;5040150;28;20276;-83
2021/08/06 07:17:14;;;;;;;4.33;2.27;;;19.70;99.10;;;;;;5039530;28;20167;-83
2021/08/06 07:19:39;;;;;;;4.23;1.80;;;19.80;96.90;;;;;;5039650;28;20194;-84
2021/08/06 07:22:05;;;;;;;4.83;1.93;;;19.80;96.90;;;;;;5038991;28;20180;-84
2021/08/06 07:24:31;;;;;;;2.57;1.80;;;19.90;97.20;;;;;;5039382;28;20569;-84
2021/08/06 07:26:57;;;;;;;3.10;2.00;;;19.90;96.80;;;;;;5040032;28;20942;-84
2021/08/06 07:29:23;;;;;;;2.67;1.70;;;19.90;96.40;;;;;;5039048;28;20262;-83
2021/08/06 07:31:49;;;;;;;2.90;1.73;;;19.90;96.30;;;;;;5039009;28;20443;-83
2021/08/06 07:34:15;;;;;;;5.10;1.90;;;19.90;95.90;;;;;;5038927;28;20515;-84
2021/08/06 07:36:41;;;;;;;4.95;1.73;;;19.90;95.70;;;;;;5039129;28;20227;-84
2021/08/06 07:39:07;;;;;;;7.37;2.50;;;19.90;95.40;;;;;;5038935;28;20196;-83
2021/08/06 07:41:32;;;;;;;6.70;1.93;;;19.90;96.20;;;;;;5038681;28;20803;-83
2021/08/06 07:43:58;;;;;;;3.07;1.90;;;19.90;95.80;;;;;;5038766;28;20446;-83
2021/08/06 07:46:25;;;;;;;2.25;1.80;;;19.90;95.20;;;;;;5038905;28;20178;-84
2021/08/06 07:48:51;;;;;;;4.05;1.70;;;20.00;95.20;;;;;;5038813;28;20212;-84
2021/08/06 07:51:17;;;;;;;3.55;1.98;;;20.00;95.90;;;;;;5038391;28;20173;-83
2021/08/06 07:53:42;;;;;;;6.60;1.73;;;19.90;95.20;;;;;;5038555;28;20184;-83
2021/08/06 07:56:08;;;;;;;3.83;2.00;;;20.00;95.60;;;;;;5056270;28;20351;-84
2021/08/06 07:58:34;;;;;;;2.95;2.00;;;20.00;95.30;;;;;;5038873;28;20278;-83
2021/08/06 08:01:00;;;;;;;5.40;1.93;;;20.00;95.10;;;;;;5039591;28;20173;-83
2021/08/06 08:03:26;;;;;;;5.70;2.33;;;20.10;96.30;;;;;;5039250;28;20193;-83
2021/08/06 08:05:51;;;;;;;4.00;2.10;;;20.00;96.10;;;;;;5038183;28;20419;-84
2021/08/06 08:08:17;;;;;;;3.63;2.23;;;20.00;96.40;;;;;;5038800;28;20284;-83
2021/08/06 08:10:43;;;;;;;3.17;2.20;;;19.90;96.60;;;;;;5039444;28;20174;-84
2021/08/06 08:13:09;;;;;;;2.43;1.70;;;19.70;96.90;;;;;;5038748;28;20660;-83
2021/08/06 08:15:35;;;;;;;1.77;1.03;;;19.50;96.40;;;;;;5038811;28;20184;-84
2021/08/06 08:18:00;;;;;;;2.93;1.80;;;19.40;96.10;;;;;;5039246;28;20177;-84
2021/08/06 08:20:26;;;;;;;2.57;1.57;;;19.30;97.50;;;;;;5039114;28;20416;-85
2021/08/06 08:22:52;;;;;;;2.07;1.30;;;19.30;96.80;;;;;;5038644;28;20287;-85
2021/08/06 08:25:17;;;;;;;1.20;1.00;;;19.20;96.80;;;;;;5038883;28;20169;-85
2021/08/06 08:27:43;;;;;;;1.50;1.10;;;19.20;96.60;;;;;;5037915;28;20260;-85
2021/08/06 08:30:10;;;;;;;2.03;1.20;;;19.10;95.50;;;;;;5038448;28;20222;-84
2021/08/06 08:32:37;;;;;;;1.13;0.90;;;19.10;97.30;;;;;;5038220;28;20633;-84
2021/08/06 08:35:03;;;;;;;1.50;1.20;;;19.10;98.20;;;;;;5038971;28;20682;-85
2021/08/06 08:37:29;;;;;;;1.10;0.88;;;19.20;96.10;;;;;;5038676;28;20247;-84
2021/08/06 08:39:55;;;;;;;2.00;1.20;;;19.10;94.80;;;;;;5038865;28;20177;-84
2021/08/06 08:42:21;;;;;;;2.80;1.47;;;19.10;95.20;;;;;;5038936;28;20549;-84
2021/08/06 08:44:48;;;;;;;2.90;1.27;;;19.10;94.70;;;;;;5056510;28;20197;-84
2021/08/06 08:47:20;;;;;;;2.30;1.13;;;19.10;95.10;;;;;;5038852;28;20227;-84
2021/08/06 08:49:49;;;;;;;2.05;1.20;;;19.20;95.20;;;;;;5039005;28;20294;-84
2021/08/06 08:52:14;;;;;;;7.47;1.23;;;19.30;95.10;;;;;;5038687;28;20952;-84
2021/08/06 08:54:40;;;;;;;3.97;1.40;;;19.40;95.70;;;;;;5038134;28;20200;-84
2021/08/06 08:57:06;;;;;;;2.30;1.30;;;19.70;96.60;;;;;;5038064;28;20260;-84
2021/08/06 08:59:32;;;;;;;2.50;1.45;;;19.90;96.90;;;;;;5039051;28;20176;-84
2021/08/06 09:01:58;;;;;;;6.10;2.10;;;20.20;95.50;;;;;;5037977;28;20683;-84
2021/08/06 09:04:29;;;;;;;1.37;0.87;;;20.30;94.50;;;;;;5037925;28;20225;-84
2021/08/06 09:06:57;;;;;;;1.40;1.10;;;20.40;92.10;;;;;;5037576;28;20223;-84
2021/08/06 09:09:25;;;;;;;2.83;1.80;;;20.50;92.00;;;;;;5037556;28;20197;-85
2021/08/06 09:12:09;;;;;;;2.22;0.98;;;20.50;92.00;;;;;;5039338;28;20264;-85
2021/08/06 09:14:37;;;;;;;2.00;1.08;;;20.70;92.00;;;;;;5036981;28;20284;-85
2021/08/06 09:17:10;;;;;;;1.75;1.20;;;20.80;92.20;;;;;;5037778;28;20169;-85
2021/08/06 09:19:37;;;;;;;2.05;1.40;;;21.00;95.00;;;;;;5037765;28;20260;-84
2021/08/06 09:22:21;;;;;;;1.30;1.02;;;21.30;92.40;;;;;;5037775;28;20699;-84
2021/08/06 09:25:15;;;;;;;2.53;0.98;;;21.50;88.90;;;;;;5037400;28;20228;-84
2021/08/06 09:27:47;;;;;;;1.13;0.82;;;21.80;87.40;;;;;;5037282;28;20169;-84
2021/08/06 09:30:36;;;;;;;4.13;1.10;;;22.00;87.10;;;;;;5037242;28;20174;-85
2021/08/06 09:33:02;;;;;;;3.55;1.23;;;22.10;86.60;;;;;;5037480;28;20204;-83
2021/08/06 09:35:30;;;;;;;3.08;1.40;;;22.10;84.80;;;;;;5037639;28;20179;-84
2021/08/06 09:37:58;;;;;;;1.40;0.98;;;22.10;85.90;;;;;;5037461;28;20604;-84
2021/08/06 09:40:26;;;;;;;0.95;0.90;;;22.10;84.50;;;;;;5037004;28;20181;-83
2021/08/06 09:42:58;;;;;;;1.40;1.00;;;22.20;83.50;;;;;;5036430;28;20267;-84
2021/08/06 09:45:27;;;;;;;2.15;0.90;;;22.40;83.50;;;;;;5036418;28;20170;-84
2021/08/06 09:47:56;;;;;;;4.65;1.25;;;22.40;83.80;;;;;;5036259;28;20177;-84
2021/08/06 09:50:43;;;;;;;2.30;1.00;;;22.50;81.60;;;;;;5036900;28;20790;-84
2021/08/06 09:53:10;;;;;;;3.38;1.10;;;22.40;83.90;;;;;;5036768;28;20192;-84
2021/08/06 09:55:39;;;;;;;1.67;1.10;;;22.30;81.40;;;;;;5036822;28;20706;-87
2021/08/06 09:58:14;;;;;;;1.67;1.25;;;22.30;81.30;;;;;;5035973;28;20543;-84
2021/08/06 10:00:46;;;;;;;2.17;1.08;;;22.50;82.10;;;;;;5036151;28;20169;-85
2021/08/06 10:03:27;;;;;;;4.75;1.52;;;22.70;79.50;;;;;;5035997;28;20189;-86
2021/08/06 10:06:13;;;;;;;3.35;1.17;;;23.00;77.60;;;;;;5035574;28;20173;-85
2021/08/06 10:08:40;;;;;;;2.97;1.25;;;23.20;77.60;;;;;;5035844;28;20201;-85
2021/08/06 10:11:06;;;;;;;3.25;1.10;;;23.50;76.20;;;;;;5036314;28;20651;-85
2021/08/06 10:13:33;;;;;;;2.00;1.00;;;23.70;77.40;;;;;;5037082;28;20665;-86
2021/08/06 10:15:58;;;;;;;2.60;1.20;;;23.80;72.80;;;;;;5040503;28;20222;-84
2021/08/06 10:18:25;;;;;;;2.70;1.03;;;24.00;73.00;;;;;;5041016;28;20177;-84
2021/08/06 10:20:57;;;;;;;3.78;1.25;;;24.10;69.80;;;;;;5040150;28;20499;-84
2021/08/06 10:23:23;;;;;;;1.30;0.90;;;24.30;70.50;;;;;;5040003;28;20192;-84
2021/08/06 10:25:50;;;;;;;5.55;1.40;;;24.50;67.80;;;;;;5040163;28;20268;-84
2021/08/06 10:28:16;;;;;;;1.60;0.80;;;24.30;67.60;;;;;;5039874;28;20748;-83
2021/08/06 10:30:42;;;;;;;5.03;1.10;;;24.10;71.20;;;;;;5057702;28;20637;-84
2021/08/06 10:33:26;;;;;;;8.50;1.20;;;24.10;71.20;;;;;;5039674;28;20200;-84
2021/08/06 10:36:06;;;;;;;4.93;1.25;;;24.00;69.80;;;;;;5039300;28;20403;-84
2021/08/06 10:38:44;;;;;;;3.22;1.40;;;24.10;68.70;;;;;;5039625;28;20176;-85
2021/08/06 10:41:13;;;;;;;1.60;1.20;;;24.20;69.40;;;;;;5039425;28;20691;-85
2021/08/06 10:44:09;;;;;;;5.00;1.27;;;24.30;69.50;;;;;;5039574;28;20708;-84
2021/08/06 10:46:57;;;;;;;4.15;1.20;;;24.30;66.70;;;;;;5035288;28;20536;-84
2021/08/06 10:49:28;;;;;;;1.30;1.00;;;24.20;68.90;;;;;;5039040;28;20209;-84
2021/08/06 10:52:10;;;;;;;2.63;1.50;;;24.40;68.70;;;;;;5039308;28;20211;-85
2021/08/06 10:54:36;;;;;;;1.75;0.80;;;24.60;68.40;;;;;;5039328;28;20249;-85
2021/08/06 10:57:20;;;;;;;1.93;1.00;;;24.70;68.00;;;;;;5039545;28;20173;-84
2021/08/06 10:59:46;;;;;;;2.78;1.20;;;24.60;67.60;;;;;;5039744;28;20173;-83
2021/08/06 11:02:34;;;;;;;4.13;1.35;;;24.60;67.30;;;;;;5039224;28;20201;-84
2021/08/06 11:05:01;;;;;;;2.17;1.05;;;24.60;67.00;;;;;;5043078;28;20173;-84
2021/08/06 11:07:32;;;;;;;1.00;0.80;;;24.30;68.40;;;;;;5041107;28;20173;-84
2021/08/06 11:09:59;;;;;;;1.33;1.15;;;24.30;68.00;;;;;;5042448;28;20637;-84
2021/08/06 11:12:34;;;;;;;3.15;1.00;;;24.00;67.40;;;;;;5041148;28;20268;-85
2021/08/06 11:15:03;;;;;;;2.83;1.20;;;23.90;70.30;;;;;;5039344;28;20179;-85
2021/08/06 11:17:42;;;;;;;3.42;1.05;;;23.60;68.80;;;;;;5040440;28;20173;-83
2021/08/06 11:20:14;;;;;;;3.25;1.10;;;23.10;68.70;;;;;;5041257;28;20215;-83
2021/08/06 11:22:43;;;;;;;3.70;1.23;;;22.80;71.90;;;;;;5041596;28;20177;-83
2021/08/06 11:25:24;;;;;;;1.20;1.00;;;22.70;71.00;;;;;;5040262;28;20173;-82
2021/08/06 11:28:01;;;;;;;2.50;1.45;;;22.60;72.80;;;;;;5040409;28;20169;-83
2021/08/06 11:30:36;;;;;;;2.60;1.48;;;22.50;73.30;;;;;;5040658;28;20660;-83
2021/08/06 11:33:05;;;;;;;3.60;1.20;;;22.50;71.90;;;;;;5041537;28;20188;-83
2021/08/06 11:35:36;;;;;;;1.92;1.13;;;22.70;73.80;;;;;;5041873;28;20177;-83
2021/08/06 11:38:07;;;;;;;2.05;1.25;;;23.20;70.10;;;;;;5040156;28;20644;-83
2021/08/06 11:40:37;;;;;;;2.80;1.08;;;23.70;69.50;;;;;;5040693;28;20173;-84
2021/08/06 11:43:17;;;;;;;6.32;1.25;;;24.20;68.80;;;;;;5040102;28;20242;-83
2021/08/06 11:45:45;;;;;;;3.75;1.10;;;24.70;67.10;;;;;;5041126;28;20172;-83
2021/08/06 11:48:12;;;;;;;1.17;1.00;;;25.00;64.90;;;;;;5040118;28;20779;-84
2021/08/06 11:50:48;;;;;;;3.63;1.20;;;25.30;66.60;;;;;;5114820;22;20478;-83
2021/08/06 11:53:17;;;;;;;2.55;0.98;;;25.60;64.40;;;;;;5058593;28;20193;-80
2021/08/06 11:55:45;;;;;;;3.65;1.70;;;25.90;61.30;;;;;;5045974;28;20173;-81
2021/08/06 11:58:11;;;;;;;2.67;1.08;;;25.80;62.10;;;;;;5045596;28;20173;-81
2021/08/06 12:00:39;;;;;;;3.75;1.20;;;25.30;63.70;;;;;;5046541;28;20268;-81
2021/08/06 12:03:15;;;;;;;2.55;1.00;;;25.00;64.20;;;;;;5046329;28;20687;-80
2021/08/06 12:05:49;;;;;;;2.83;1.10;;;24.60;64.10;;;;;;5046961;28;20181;-79
2021/08/06 12:08:37;;;;;;;3.20;1.50;;;24.10;65.30;;;;;;5046553;28;20292;-80
2021/08/06 12:11:06;;;;;;;2.00;1.20;;;23.70;68.10;;;;;;5046354;28;20162;-80
2021/08/06 12:13:48;;;;;;;2.53;1.10;;;23.50;66.20;;;;;;5046509;28;20231;-80
2021/08/06 12:16:21;;;;;;;3.65;1.10;;;23.50;66.60;;;;;;5045260;28;20168;-80
2021/08/06 12:18:58;;;;;;;2.53;1.30;;;23.50;67.30;;;;;;5044848;28;20181;-80
2021/08/06 12:21:38;;;;;;;1.73;1.10;;;23.40;66.60;;;;;;5045784;28;20169;-80
2021/08/06 12:24:12;;;;;;;2.15;0.82;;;23.50;65.90;;;;;;5045278;28;20217;-81
2021/08/06 12:26:42;;;;;;;3.83;1.10;;;23.40;66.20;;;;;;5062462;28;20268;-81
2021/08/06 12:29:12;;;;;;;1.98;1.10;;;23.50;65.20;;;;;;5044515;28;20225;-82
2021/08/06 12:31:53;;;;;;;2.63;1.02;;;23.90;66.70;;;;;;5045955;28;20720;-81
2021/08/06 12:34:44;;;;;;;3.67;1.42;;;24.50;64.90;;;;;;5038287;28;20193;-79
2021/08/06 12:37:16;;;;;;;1.88;1.00;;;25.00;64.40;;;;;;5030466;28;20235;-79
2021/08/06 12:39:52;;;;;;;1.60;1.00;;;25.40;59.70;;;;;;5036312;28;20165;-79
2021/08/06 12:42:30;;;;;;;4.88;1.35;;;25.40;58.30;;;;;;5036214;28;20172;-79
2021/08/06 12:44:56;;;;;;;7.32;1.95;;;25.30;58.40;;;;;;5037709;28;20629;-79
2021/08/06 12:47:23;;;;;;;4.47;0.90;;;25.40;61.90;;;;;;5044023;28;20238;-79
2021/08/06 12:50:04;;;;;;;2.47;1.27;;;25.90;59.70;;;;;;5044398;28;20461;-79
2021/08/06 12:52:36;;;;;;;2.03;1.13;;;26.40;60.00;;;;;;5041813;28;20188;-79
2021/08/06 12:55:15;;;;;;;2.58;1.10;;;26.40;57.40;;;;;;5045024;28;20180;-80